sensor_id;sensor_type;location;lat;lon;timestamp;pressure;altitude;pressure_sealevel;temperature;humidity
80242;BME280;69556;45.004;7.532;2023-05-10T00:01:24;97973.81;;;15.22;87.48
80242;BME280;69556;45.004;7.532;2023-05-10T00:03:49;97973.63;;;15.25;87.40
80242;BME280;69556;45.004;7.532;2023-05-10T00:06:15;97975.31;;;15.26;87.55
80242;BME280;69556;45.004;7.532;2023-05-10T00:08:40;97980.34;;;15.30;87.51
80242;BME280;69556;45.004;7.532;2023-05-10T00:11:06;97978.66;;;15.29;87.53
80242;BME280;69556;45.004;7.532;2023-05-10T00:13:31;97985.94;;;15.26;87.31
80242;BME280;69556;45.004;7.532;2023-05-10T00:15:57;97983.13;;;15.29;87.43
80242;BME280;69556;45.004;7.532;2023-05-10T00:18:22;97985.66;;;15.30;87.58
80242;BME280;69556;45.004;7.532;2023-05-10T00:20:47;97982.25;;;15.28;87.59
80242;BME280;69556;45.004;7.532;2023-05-10T00:23:14;97988.81;;;15.23;87.93
80242;BME280;69556;45.004;7.532;2023-05-10T00:25:39;97979.03;;;15.23;87.73
80242;BME280;69556;45.004;7.532;2023-05-10T00:28:05;97986.34;;;15.20;87.83
80242;BME280;69556;45.004;7.532;2023-05-10T00:30:30;97983.22;;;15.13;88.20
80242;BME280;69556;45.004;7.532;2023-05-10T00:32:55;97978.94;;;15.11;88.04
80242;BME280;69556;45.004;7.532;2023-05-10T00:35:21;97977.22;;;15.10;88.92
80242;BME280;69556;45.004;7.532;2023-05-10T00:37:46;97984.25;;;15.11;88.62
80242;BME280;69556;45.004;7.532;2023-05-10T00:40:12;97984.06;;;15.14;88.67
80242;BME280;69556;45.004;7.532;2023-05-10T00:42:37;97979.59;;;15.14;88.46
80242;BME280;69556;45.004;7.532;2023-05-10T00:45:03;97976.94;;;15.14;88.34
80242;BME280;69556;45.004;7.532;2023-05-10T00:47:29;97973.06;;;15.20;88.32
80242;BME280;69556;45.004;7.532;2023-05-10T00:49:54;97981.78;;;15.22;88.40
80242;BME280;69556;45.004;7.532;2023-05-10T00:52:21;97990.59;;;15.22;88.61
80242;BME280;69556;45.004;7.532;2023-05-10T00:54:48;97975.59;;;15.21;88.48
80242;BME280;69556;45.004;7.532;2023-05-10T00:57:14;97973.81;;;15.22;88.50
80242;BME280;69556;45.004;7.532;2023-05-10T00:59:40;97988.59;;;15.26;88.34
80242;BME280;69556;45.004;7.532;2023-05-10T01:02:06;97990.31;;;15.27;88.18
80242;BME280;69556;45.004;7.532;2023-05-10T01:04:31;97990.03;;;15.31;88.15
80242;BME280;69556;45.004;7.532;2023-05-10T01:06:57;97982.06;;;15.31;88.05
80242;BME280;69556;45.004;7.532;2023-05-10T01:09:23;97986.44;;;15.32;88.27
80242;BME280;69556;45.004;7.532;2023-05-10T01:11:51;97985.88;;;15.27;88.10
80242;BME280;69556;45.004;7.532;2023-05-10T01:14:18;97981.19;;;15.31;88.19
80242;BME280;69556;45.004;7.532;2023-05-10T01:16:44;97975.16;;;15.29;87.89
80242;BME280;69556;45.004;7.532;2023-05-10T01:19:20;97970.78;;;15.28;88.06
80242;BME280;69556;45.004;7.532;2023-05-10T01:27:17;97989.00;;;15.20;87.55
80242;BME280;69556;45.004;7.532;2023-05-10T01:35:10;97989.38;;;15.14;86.45
80242;BME280;69556;45.004;7.532;2023-05-10T01:37:50;97985.94;;;15.12;86.85
80242;BME280;69556;45.004;7.532;2023-05-10T01:40:32;97988.06;;;15.07;86.82
80242;BME280;69556;45.004;7.532;2023-05-10T01:43:03;97996.13;;;15.05;87.00
80242;BME280;69556;45.004;7.532;2023-05-10T01:45:37;98002.47;;;15.03;87.07
80242;BME280;69556;45.004;7.532;2023-05-10T01:48:06;98004.38;;;15.01;86.87
80242;BME280;69556;45.004;7.532;2023-05-10T01:50:35;98009.88;;;14.97;86.74
80242;BME280;69556;45.004;7.532;2023-05-10T01:53:02;98012.13;;;14.89;87.08
80242;BME280;69556;45.004;7.532;2023-05-10T01:55:33;98010.53;;;14.87;87.38
80242;BME280;69556;45.004;7.532;2023-05-10T01:58:05;98007.88;;;14.87;87.20
80242;BME280;69556;45.004;7.532;2023-05-10T02:00:31;98011.56;;;14.84;87.23
80242;BME280;69556;45.004;7.532;2023-05-10T02:02:59;98006.44;;;14.81;86.93
80242;BME280;69556;45.004;7.532;2023-05-10T02:05:25;98013.47;;;14.82;86.63
80242;BME280;69556;45.004;7.532;2023-05-10T02:07:52;98010.22;;;14.77;86.80
80242;BME280;69556;45.004;7.532;2023-05-10T02:10:18;98017.34;;;14.77;86.81
80242;BME280;69556;45.004;7.532;2023-05-10T02:12:47;98015.72;;;14.74;86.64
80242;BME280;69556;45.004;7.532;2023-05-10T02:15:17;98025.66;;;14.71;86.53
80242;BME280;69556;45.004;7.532;2023-05-10T02:17:45;98029.25;;;14.70;85.97
80242;BME280;69556;45.004;7.532;2023-05-10T02:20:12;98028.44;;;14.69;85.68
80242;BME280;69556;45.004;7.532;2023-05-10T02:22:39;98033.91;;;14.66;85.81
80242;BME280;69556;45.004;7.532;2023-05-10T02:25:06;98035.81;;;14.64;85.31
80242;BME280;69556;45.004;7.532;2023-05-10T02:27:33;98025.19;;;14.64;85.76
80242;BME280;69556;45.004;7.532;2023-05-10T02:30:00;98032.38;;;14.62;85.55
80242;BME280;69556;45.004;7.532;2023-05-10T02:32:27;98045.75;;;14.61;85.76
80242;BME280;69556;45.004;7.532;2023-05-10T02:34:53;98043.94;;;14.61;85.38
80242;BME280;69556;45.004;7.532;2023-05-10T02:37:20;98043.94;;;14.61;84.93
80242;BME280;69556;45.004;7.532;2023-05-10T02:39:50;98044.78;;;14.62;85.02
80242;BME280;69556;45.004;7.532;2023-05-10T02:42:18;98042.34;;;14.59;84.21
80242;BME280;69556;45.004;7.532;2023-05-10T02:44:47;98036.94;;;14.60;83.73
80242;BME280;69556;45.004;7.532;2023-05-10T02:47:13;98031.97;;;14.54;83.65
80242;BME280;69556;45.004;7.532;2023-05-10T02:49:38;98039.00;;;14.55;83.75
80242;BME280;69556;45.004;7.532;2023-05-10T02:52:05;98022.66;;;14.47;83.32
80242;BME280;69556;45.004;7.532;2023-05-10T02:54:37;98027.38;;;14.42;83.71
80242;BME280;69556;45.004;7.532;2023-05-10T02:57:05;98039.03;;;14.39;83.42
80242;BME280;69556;45.004;7.532;2023-05-10T02:59:32;98039.25;;;14.35;83.64
80242;BME280;69556;45.004;7.532;2023-05-10T03:01:59;98039.72;;;14.27;83.59
80242;BME280;69556;45.004;7.532;2023-05-10T03:04:25;98039.00;;;14.24;83.77
80242;BME280;69556;45.004;7.532;2023-05-10T03:06:51;98037.22;;;14.24;84.15
80242;BME280;69556;45.004;7.532;2023-05-10T03:09:16;98039.19;;;14.21;84.05
80242;BME280;69556;45.004;7.532;2023-05-10T03:14:21;98041.94;;;14.19;82.91
80242;BME280;69556;45.004;7.532;2023-05-10T03:17:00;98047.69;;;14.11;83.21
80242;BME280;69556;45.004;7.532;2023-05-10T03:19:30;98050.53;;;14.08;83.27
80242;BME280;69556;45.004;7.532;2023-05-10T03:21:59;98044.38;;;14.08;83.28
80242;BME280;69556;45.004;7.532;2023-05-10T03:24:29;98051.63;;;14.04;83.11
80242;BME280;69556;45.004;7.532;2023-05-10T03:26:56;98051.81;;;14.01;83.37
80242;BME280;69556;45.004;7.532;2023-05-10T03:29:25;98054.53;;;14.00;83.28
80242;BME280;69556;45.004;7.532;2023-05-10T03:31:51;98055.50;;;13.99;83.41
80242;BME280;69556;45.004;7.532;2023-05-10T03:34:23;98058.03;;;14.00;82.95
80242;BME280;69556;45.004;7.532;2023-05-10T03:36:48;98052.59;;;14.03;82.74
80242;BME280;69556;45.004;7.532;2023-05-10T03:39:13;98065.25;;;13.98;83.02
80242;BME280;69556;45.004;7.532;2023-05-10T03:41:39;98062.41;;;14.01;82.36
80242;BME280;69556;45.004;7.532;2023-05-10T03:44:04;98066.72;;;14.04;81.81
80242;BME280;69556;45.004;7.532;2023-05-10T03:46:29;98062.50;;;14.00;81.70
80242;BME280;69556;45.004;7.532;2023-05-10T03:48:55;98073.34;;;13.95;82.25
80242;BME280;69556;45.004;7.532;2023-05-10T03:51:20;98080.22;;;13.99;81.71
80242;BME280;69556;45.004;7.532;2023-05-10T03:53:45;98066.19;;;13.97;81.68
80242;BME280;69556;45.004;7.532;2023-05-10T03:56:11;98072.78;;;13.90;82.02
80242;BME280;69556;45.004;7.532;2023-05-10T03:58:36;98071.06;;;13.89;82.05
80242;BME280;69556;45.004;7.532;2023-05-10T04:01:02;98072.31;;;13.82;82.36
80242;BME280;69556;45.004;7.532;2023-05-10T04:03:27;98092.78;;;13.80;81.96
80242;BME280;69556;45.004;7.532;2023-05-10T04:06:00;98089.19;;;13.81;82.48
80242;BME280;69556;45.004;7.532;2023-05-10T04:08:26;98089.34;;;13.78;82.27
80242;BME280;69556;45.004;7.532;2023-05-10T04:10:51;98083.88;;;13.81;82.33
80242;BME280;69556;45.004;7.532;2023-05-10T04:13:16;98090.03;;;13.82;82.68
80242;BME280;69556;45.004;7.532;2023-05-10T04:15:42;98096.31;;;13.81;82.45
80242;BME280;69556;45.004;7.532;2023-05-10T04:18:08;98094.50;;;13.81;82.32
80242;BME280;69556;45.004;7.532;2023-05-10T04:20:33;98094.84;;;13.75;82.72
80242;BME280;69556;45.004;7.532;2023-05-10T04:22:59;98099.78;;;13.81;82.52
80242;BME280;69556;45.004;7.532;2023-05-10T04:25:24;98099.09;;;13.78;82.47
80242;BME280;69556;45.004;7.532;2023-05-10T04:27:50;98106.06;;;13.80;82.40
80242;BME280;69556;45.004;7.532;2023-05-10T04:30:15;98097.63;;;13.72;82.34
80242;BME280;69556;45.004;7.532;2023-05-10T04:32:40;98108.97;;;13.76;82.41
80242;BME280;69556;45.004;7.532;2023-05-10T04:35:06;98107.31;;;13.73;82.64
80242;BME280;69556;45.004;7.532;2023-05-10T04:37:31;98106.56;;;13.71;82.25
80242;BME280;69556;45.004;7.532;2023-05-10T04:39:56;98106.63;;;13.70;83.00
80242;BME280;69556;45.004;7.532;2023-05-10T04:42:22;98104.78;;;13.72;83.31
80242;BME280;69556;45.004;7.532;2023-05-10T04:44:47;98113.81;;;13.67;82.68
80242;BME280;69556;45.004;7.532;2023-05-10T04:47:12;98119.81;;;13.71;82.35
80242;BME280;69556;45.004;7.532;2023-05-10T04:49:38;98121.69;;;13.69;82.78
80242;BME280;69556;45.004;7.532;2023-05-10T04:52:03;98125.44;;;13.65;82.58
80242;BME280;69556;45.004;7.532;2023-05-10T04:54:29;98130.06;;;13.61;82.25
80242;BME280;69556;45.004;7.532;2023-05-10T04:56:54;98133.16;;;13.70;82.71
80242;BME280;69556;45.004;7.532;2023-05-10T04:59:20;98142.91;;;13.69;82.79
80242;BME280;69556;45.004;7.532;2023-05-10T05:01:45;98135.25;;;13.63;82.55
80242;BME280;69556;45.004;7.532;2023-05-10T05:04:10;98142.38;;;13.62;82.87
80242;BME280;69556;45.004;7.532;2023-05-10T05:06:36;98141.69;;;13.59;83.05
80242;BME280;69556;45.004;7.532;2023-05-10T05:09:01;98137.06;;;13.62;83.01
80242;BME280;69556;45.004;7.532;2023-05-10T05:11:27;98145.88;;;13.63;83.00
80242;BME280;69556;45.004;7.532;2023-05-10T05:13:52;98143.56;;;13.57;82.72
80242;BME280;69556;45.004;7.532;2023-05-10T05:16:18;98136.47;;;13.57;83.14
80242;BME280;69556;45.004;7.532;2023-05-10T05:18:43;98142.47;;;13.61;83.19
80242;BME280;69556;45.004;7.532;2023-05-10T05:21:16;98143.22;;;13.63;83.52
80242;BME280;69556;45.004;7.532;2023-05-10T05:23:41;98153.06;;;13.61;83.08
80242;BME280;69556;45.004;7.532;2023-05-10T05:26:07;98151.41;;;13.58;83.17
80242;BME280;69556;45.004;7.532;2023-05-10T05:28:32;98159.25;;;13.61;83.20
80242;BME280;69556;45.004;7.532;2023-05-10T05:30:59;98162.03;;;13.58;83.05
80242;BME280;69556;45.004;7.532;2023-05-10T05:33:25;98159.47;;;13.57;83.45
80242;BME280;69556;45.004;7.532;2023-05-10T05:35:50;98161.97;;;13.60;83.48
80242;BME280;69556;45.004;7.532;2023-05-10T05:38:16;98168.19;;;13.59;83.10
80242;BME280;69556;45.004;7.532;2023-05-10T05:40:42;98164.63;;;13.60;83.03
80242;BME280;69556;45.004;7.532;2023-05-10T05:43:07;98166.09;;;13.65;83.14
80242;BME280;69556;45.004;7.532;2023-05-10T05:45:33;98160.69;;;13.67;82.98
80242;BME280;69556;45.004;7.532;2023-05-10T05:47:58;98166.53;;;13.74;82.62
80242;BME280;69556;45.004;7.532;2023-05-10T05:50:23;98169.78;;;13.79;82.06
80242;BME280;69556;45.004;7.532;2023-05-10T05:52:48;98171.34;;;13.83;82.19
80242;BME280;69556;45.004;7.532;2023-05-10T05:55:14;98179.06;;;13.87;81.85
80242;BME280;69556;45.004;7.532;2023-05-10T05:57:39;98174.78;;;13.85;81.24
80242;BME280;69556;45.004;7.532;2023-05-10T06:00:05;98180.78;;;13.88;81.21
80242;BME280;69556;45.004;7.532;2023-05-10T06:02:31;98186.94;;;13.89;81.34
80242;BME280;69556;45.004;7.532;2023-05-10T06:04:56;98185.16;;;13.89;81.90
80242;BME280;69556;45.004;7.532;2023-05-10T06:07:21;98192.94;;;13.92;81.60
80242;BME280;69556;45.004;7.532;2023-05-10T06:09:47;98193.13;;;13.89;81.40
80242;BME280;69556;45.004;7.532;2023-05-10T06:12:12;98185.84;;;13.93;81.57
80242;BME280;69556;45.004;7.532;2023-05-10T06:14:38;98190.09;;;13.95;81.24
80242;BME280;69556;45.004;7.532;2023-05-10T06:17:03;98193.78;;;13.93;80.70
80242;BME280;69556;45.004;7.532;2023-05-10T06:19:30;98200.81;;;13.94;81.00
80242;BME280;69556;45.004;7.532;2023-05-10T06:21:55;98200.81;;;13.94;81.04
80242;BME280;69556;45.004;7.532;2023-05-10T06:24:21;98203.56;;;13.92;81.25
80242;BME280;69556;45.004;7.532;2023-05-10T06:26:46;98210.41;;;13.96;80.85
80242;BME280;69556;45.004;7.532;2023-05-10T06:29:12;98214.78;;;13.97;80.43
80242;BME280;69556;45.004;7.532;2023-05-10T06:31:37;98212.13;;;13.97;80.79
80242;BME280;69556;45.004;7.532;2023-05-10T06:34:02;98218.22;;;13.99;80.12
80242;BME280;69556;45.004;7.532;2023-05-10T06:36:28;98222.41;;;14.03;80.50
80242;BME280;69556;45.004;7.532;2023-05-10T06:38:53;98221.47;;;14.04;80.39
80242;BME280;69556;45.004;7.532;2023-05-10T06:41:19;98226.19;;;14.15;80.29
80242;BME280;69556;45.004;7.532;2023-05-10T06:43:44;98225.09;;;14.19;79.88
80242;BME280;69556;45.004;7.532;2023-05-10T06:46:09;98216.72;;;14.27;79.58
80242;BME280;69556;45.004;7.532;2023-05-10T06:48:35;98221.59;;;14.34;79.79
80242;BME280;69556;45.004;7.532;2023-05-10T06:51:00;98221.47;;;14.37;79.60
80242;BME280;69556;45.004;7.532;2023-05-10T06:53:26;98227.00;;;14.33;79.13
80242;BME280;69556;45.004;7.532;2023-05-10T06:55:51;98229.41;;;14.22;79.28
80242;BME280;69556;45.004;7.532;2023-05-10T06:58:17;98221.31;;;14.23;79.57
80242;BME280;69556;45.004;7.532;2023-05-10T07:00:42;98225.81;;;14.23;79.70
80242;BME280;69556;45.004;7.532;2023-05-10T07:03:09;98227.25;;;14.28;79.38
80242;BME280;69556;45.004;7.532;2023-05-10T07:05:35;98229.03;;;14.28;79.26
80242;BME280;69556;45.004;7.532;2023-05-10T07:08:00;98231.00;;;14.24;79.66
80242;BME280;69556;45.004;7.532;2023-05-10T07:10:26;98228.34;;;14.24;79.53
80242;BME280;69556;45.004;7.532;2023-05-10T07:12:51;98236.56;;;14.20;79.29
80242;BME280;69556;45.004;7.532;2023-05-10T07:15:17;98233.84;;;14.21;79.25
80242;BME280;69556;45.004;7.532;2023-05-10T07:17:43;98233.28;;;14.32;79.37
80242;BME280;69556;45.004;7.532;2023-05-10T07:20:08;98236.19;;;14.27;79.24
80242;BME280;69556;45.004;7.532;2023-05-10T07:22:34;98231.69;;;14.28;79.39
80242;BME280;69556;45.004;7.532;2023-05-10T07:24:59;98240.63;;;14.27;79.12
80242;BME280;69556;45.004;7.532;2023-05-10T07:27:25;98243.78;;;14.33;79.17
80242;BME280;69556;45.004;7.532;2023-05-10T07:29:50;98243.09;;;14.30;79.10
80242;BME280;69556;45.004;7.532;2023-05-10T07:32:16;98239.50;;;14.31;78.84
80242;BME280;69556;45.004;7.532;2023-05-10T07:34:42;98245.28;;;14.39;78.65
80242;BME280;69556;45.004;7.532;2023-05-10T07:37:07;98240.34;;;14.48;78.51
80242;BME280;69556;45.004;7.532;2023-05-10T07:39:32;98244.94;;;14.61;78.58
80242;BME280;69556;45.004;7.532;2023-05-10T07:41:58;98243.41;;;14.57;77.88
80242;BME280;69556;45.004;7.532;2023-05-10T07:44:23;98247.88;;;14.56;78.02
80242;BME280;69556;45.004;7.532;2023-05-10T07:46:49;98247.09;;;14.54;78.46
80242;BME280;69556;45.004;7.532;2023-05-10T07:49:14;98248.13;;;14.51;78.69
80242;BME280;69556;45.004;7.532;2023-05-10T07:51:40;98246.44;;;14.50;78.63
80242;BME280;69556;45.004;7.532;2023-05-10T07:54:07;98248.28;;;14.48;78.52
80242;BME280;69556;45.004;7.532;2023-05-10T07:56:32;98235.69;;;14.52;78.70
80242;BME280;69556;45.004;7.532;2023-05-10T07:59:02;98250.69;;;14.53;78.84
80242;BME280;69556;45.004;7.532;2023-05-10T08:01:32;98242.56;;;14.56;79.04
80242;BME280;69556;45.004;7.532;2023-05-10T08:03:58;98242.22;;;14.62;79.25
80242;BME280;69556;45.004;7.532;2023-05-10T08:06:23;98240.75;;;14.57;79.09
80242;BME280;69556;45.004;7.532;2023-05-10T08:08:51;98249.44;;;14.60;79.41
80242;BME280;69556;45.004;7.532;2023-05-10T08:11:19;98245.41;;;14.69;78.88
80242;BME280;69556;45.004;7.532;2023-05-10T08:13:46;98236.25;;;14.74;78.29
80242;BME280;69556;45.004;7.532;2023-05-10T08:16:12;98242.13;;;14.79;78.44
80242;BME280;69556;45.004;7.532;2023-05-10T08:18:38;98234.50;;;14.89;78.08
80242;BME280;69556;45.004;7.532;2023-05-10T08:21:04;98241.19;;;14.96;77.35
80242;BME280;69556;45.004;7.532;2023-05-10T08:23:29;98230.88;;;15.06;77.57
80242;BME280;69556;45.004;7.532;2023-05-10T08:25:54;98232.59;;;15.07;77.16
80242;BME280;69556;45.004;7.532;2023-05-10T08:28:20;98234.47;;;15.20;76.20
80242;BME280;69556;45.004;7.532;2023-05-10T08:30:45;98234.78;;;15.30;76.85
80242;BME280;69556;45.004;7.532;2023-05-10T08:33:10;98222.91;;;15.35;75.72
80242;BME280;69556;45.004;7.532;2023-05-10T08:35:36;98225.31;;;15.40;75.59
80242;BME280;69556;45.004;7.532;2023-05-10T08:38:01;98236.44;;;15.47;74.95
80242;BME280;69556;45.004;7.532;2023-05-10T08:40:26;98228.91;;;15.55;74.88
80242;BME280;69556;45.004;7.532;2023-05-10T08:43:06;98224.53;;;15.68;74.66
80242;BME280;69556;45.004;7.532;2023-05-10T08:45:37;98230.09;;;15.79;73.87
80242;BME280;69556;45.004;7.532;2023-05-10T08:48:05;98223.56;;;15.99;74.57
80242;BME280;69556;45.004;7.532;2023-05-10T08:50:31;98229.47;;;16.18;73.31
80242;BME280;69556;45.004;7.532;2023-05-10T08:52:59;98229.75;;;16.27;72.58
80242;BME280;69556;45.004;7.532;2023-05-10T08:55:25;98224.59;;;16.24;72.55
80242;BME280;69556;45.004;7.532;2023-05-10T08:57:51;98226.97;;;16.29;72.62
80242;BME280;69556;45.004;7.532;2023-05-10T09:00:17;98226.97;;;16.15;72.14
80242;BME280;69556;45.004;7.532;2023-05-10T09:02:43;98226.59;;;16.21;73.32
80242;BME280;69556;45.004;7.532;2023-05-10T09:05:10;98232.31;;;16.15;73.16
80242;BME280;69556;45.004;7.532;2023-05-10T09:07:36;98228.97;;;16.11;72.70
80242;BME280;69556;45.004;7.532;2023-05-10T09:10:02;98228.03;;;16.12;72.30
80242;BME280;69556;45.004;7.532;2023-05-10T09:12:28;98230.91;;;16.09;71.91
80242;BME280;69556;45.004;7.532;2023-05-10T09:14:54;98226.13;;;16.00;72.39
80242;BME280;69556;45.004;7.532;2023-05-10T09:17:23;98224.69;;;15.95;72.15
80242;BME280;69556;45.004;7.532;2023-05-10T09:19:48;98216.22;;;16.02;72.12
80242;BME280;69556;45.004;7.532;2023-05-10T09:22:14;98224.59;;;16.10;72.67
80242;BME280;69556;45.004;7.532;2023-05-10T09:24:42;98225.84;;;16.05;71.73
80242;BME280;69556;45.004;7.532;2023-05-10T09:27:10;98217.00;;;16.18;71.82
80242;BME280;69556;45.004;7.532;2023-05-10T09:29:41;98219.56;;;16.20;71.50
80242;BME280;69556;45.004;7.532;2023-05-10T09:32:07;98222.22;;;16.06;71.41
80242;BME280;69556;45.004;7.532;2023-05-10T09:34:32;98218.69;;;16.05;72.19
80242;BME280;69556;45.004;7.532;2023-05-10T09:37:01;98222.13;;;16.07;72.29
80242;BME280;69556;45.004;7.532;2023-05-10T09:39:34;98211.69;;;16.18;72.29
80242;BME280;69556;45.004;7.532;2023-05-10T09:42:02;98216.72;;;16.23;71.45
80242;BME280;69556;45.004;7.532;2023-05-10T09:44:29;98218.53;;;16.37;70.77
80242;BME280;69556;45.004;7.532;2023-05-10T09:46:54;98218.41;;;16.38;70.58
80242;BME280;69556;45.004;7.532;2023-05-10T09:49:21;98214.22;;;16.06;70.72
80242;BME280;69556;45.004;7.532;2023-05-10T09:51:46;98210.81;;;16.18;71.05
80242;BME280;69556;45.004;7.532;2023-05-10T09:54:16;98218.78;;;16.46;70.61
80242;BME280;69556;45.004;7.532;2023-05-10T09:56:42;98214.88;;;16.66;70.45
80242;BME280;69556;45.004;7.532;2023-05-10T09:59:19;98211.53;;;16.77;69.94
80242;BME280;69556;45.004;7.532;2023-05-10T10:01:49;98208.41;;;16.97;67.70
80242;BME280;69556;45.004;7.532;2023-05-10T10:04:16;98199.34;;;16.99;67.74
80242;BME280;69556;45.004;7.532;2023-05-10T10:06:42;98192.38;;;17.11;67.26
80242;BME280;69556;45.004;7.532;2023-05-10T10:09:11;98204.38;;;17.31;66.60
80242;BME280;69556;45.004;7.532;2023-05-10T10:11:38;98187.22;;;17.47;66.50
80242;BME280;69556;45.004;7.532;2023-05-10T10:14:05;98174.88;;;17.59;65.71
80242;BME280;69556;45.004;7.532;2023-05-10T10:16:31;98195.63;;;17.81;65.31
80242;BME280;69556;45.004;7.532;2023-05-10T10:18:57;98183.00;;;17.83;64.97
80242;BME280;69556;45.004;7.532;2023-05-10T10:21:23;98174.75;;;18.11;65.23
80242;BME280;69556;45.004;7.532;2023-05-10T10:23:49;98177.13;;;18.28;65.00
80242;BME280;69556;45.004;7.532;2023-05-10T10:26:17;98185.47;;;18.24;62.98
80242;BME280;69556;45.004;7.532;2023-05-10T10:34:06;98173.63;;;18.52;63.45
80242;BME280;69556;45.004;7.532;2023-05-10T10:36:54;98171.19;;;18.61;62.62
80242;BME280;69556;45.004;7.532;2023-05-10T10:39:20;98168.94;;;18.55;61.92
80242;BME280;69556;45.004;7.532;2023-05-10T10:41:56;98154.28;;;18.61;62.28
80242;BME280;69556;45.004;7.532;2023-05-10T10:49:38;98154.50;;;18.58;61.07
80242;BME280;69556;45.004;7.532;2023-05-10T10:52:20;98157.22;;;18.32;59.58
80242;BME280;69556;45.004;7.532;2023-05-10T10:54:54;98149.13;;;18.21;59.37
80242;BME280;69556;45.004;7.532;2023-05-10T10:57:22;98145.06;;;18.16;61.13
80242;BME280;69556;45.004;7.532;2023-05-10T10:59:48;98140.28;;;18.57;62.16
80242;BME280;69556;45.004;7.532;2023-05-10T11:05:23;98131.53;;;18.55;60.64
80242;BME280;69556;45.004;7.532;2023-05-10T11:07:59;98131.38;;;18.69;60.24
80242;BME280;69556;45.004;7.532;2023-05-10T11:10:26;98126.91;;;18.57;58.52
80242;BME280;69556;45.004;7.532;2023-05-10T11:13:06;98123.53;;;19.14;59.38
80242;BME280;69556;45.004;7.532;2023-05-10T11:15:36;98126.72;;;19.19;58.38
80242;BME280;69556;45.004;7.532;2023-05-10T11:18:23;98124.94;;;19.30;59.11
80242;BME280;69556;45.004;7.532;2023-05-10T11:21:00;98114.94;;;19.21;58.10
80242;BME280;69556;45.004;7.532;2023-05-10T11:23:32;98112.47;;;19.18;58.45
80242;BME280;69556;45.004;7.532;2023-05-10T11:25:59;98114.50;;;19.39;58.82
80242;BME280;69556;45.004;7.532;2023-05-10T11:28:25;98109.19;;;19.15;57.18
80242;BME280;69556;45.004;7.532;2023-05-10T11:30:51;98105.69;;;19.49;58.26
80242;BME280;69556;45.004;7.532;2023-05-10T11:33:18;98101.81;;;19.29;57.23
80242;BME280;69556;45.004;7.532;2023-05-10T11:35:44;98107.75;;;19.57;56.79
80242;BME280;69556;45.004;7.532;2023-05-10T11:38:11;98099.38;;;20.17;57.53
80242;BME280;69556;45.004;7.532;2023-05-10T11:40:37;98098.28;;;20.19;55.31
80242;BME280;69556;45.004;7.532;2023-05-10T11:43:03;98100.72;;;19.78;55.63
80242;BME280;69556;45.004;7.532;2023-05-10T11:45:32;98102.50;;;19.55;55.54
80242;BME280;69556;45.004;7.532;2023-05-10T11:47:58;98098.63;;;19.48;56.90
80242;BME280;69556;45.004;7.532;2023-05-10T11:50:24;98095.63;;;19.29;57.38
80242;BME280;69556;45.004;7.532;2023-05-10T11:53:00;98093.03;;;19.16;57.51
80242;BME280;69556;45.004;7.532;2023-05-10T11:55:25;98094.09;;;19.14;57.69
80242;BME280;69556;45.004;7.532;2023-05-10T11:57:54;98088.59;;;19.39;57.17
80242;BME280;69556;45.004;7.532;2023-05-10T12:00:20;98079.34;;;19.43;57.34
80242;BME280;69556;45.004;7.532;2023-05-10T12:02:46;98082.09;;;19.54;58.05
80242;BME280;69556;45.004;7.532;2023-05-10T12:05:11;98076.63;;;19.32;57.83
80242;BME280;69556;45.004;7.532;2023-05-10T12:07:37;98080.66;;;19.38;59.40
80242;BME280;69556;45.004;7.532;2023-05-10T12:12:42;98076.50;;;20.67;57.02
80242;BME280;69556;45.004;7.532;2023-05-10T12:15:27;98072.38;;;20.95;56.02
80242;BME280;69556;45.004;7.532;2023-05-10T12:17:53;98067.72;;;21.29;55.25
80242;BME280;69556;45.004;7.532;2023-05-10T12:20:23;98067.47;;;21.32;54.33
80242;BME280;69556;45.004;7.532;2023-05-10T12:22:53;98060.84;;;21.87;53.23
80242;BME280;69556;45.004;7.532;2023-05-10T12:25:21;98053.69;;;21.76;52.97
80242;BME280;69556;45.004;7.532;2023-05-10T12:27:50;98052.88;;;22.06;54.58
80242;BME280;69556;45.004;7.532;2023-05-10T12:30:23;98047.13;;;21.90;51.32
80242;BME280;69556;45.004;7.532;2023-05-10T12:32:49;98042.69;;;21.49;53.33
80242;BME280;69556;45.004;7.532;2023-05-10T12:35:15;98050.72;;;21.07;52.59
80242;BME280;69556;45.004;7.532;2023-05-10T12:37:42;98051.16;;;20.92;53.52
80242;BME280;69556;45.004;7.532;2023-05-10T12:40:09;98047.72;;;20.69;53.93
80242;BME280;69556;45.004;7.532;2023-05-10T12:42:36;98056.75;;;20.68;54.41
80242;BME280;69556;45.004;7.532;2023-05-10T12:45:03;98048.81;;;20.98;52.03
80242;BME280;69556;45.004;7.532;2023-05-10T12:47:29;98042.69;;;21.79;51.43
80242;BME280;69556;45.004;7.532;2023-05-10T12:49:54;98023.88;;;21.79;50.45
80242;BME280;69556;45.004;7.532;2023-05-10T12:52:19;98030.78;;;21.21;51.20
80242;BME280;69556;45.004;7.532;2023-05-10T12:54:45;98030.69;;;22.14;50.59
80242;BME280;69556;45.004;7.532;2023-05-10T12:57:11;98019.78;;;22.15;50.56
80242;BME280;69556;45.004;7.532;2023-05-10T12:59:36;98024.44;;;21.73;51.70
80242;BME280;69556;45.004;7.532;2023-05-10T13:02:02;98019.97;;;21.32;50.85
80242;BME280;69556;45.004;7.532;2023-05-10T13:04:27;98030.63;;;21.02;52.29
80242;BME280;69556;45.004;7.532;2023-05-10T13:06:52;98012.69;;;21.74;50.34
80242;BME280;69556;45.004;7.532;2023-05-10T13:09:18;98016.09;;;22.75;50.37
80242;BME280;69556;45.004;7.532;2023-05-10T13:11:44;98013.34;;;22.47;48.32
80242;BME280;69556;45.004;7.532;2023-05-10T13:14:10;98005.69;;;22.52;49.13
80242;BME280;69556;45.004;7.532;2023-05-10T13:16:35;98007.06;;;22.27;50.44
80242;BME280;69556;45.004;7.532;2023-05-10T13:19:00;98009.47;;;22.11;50.47
80242;BME280;69556;45.004;7.532;2023-05-10T13:21:26;98003.00;;;21.92;50.00
80242;BME280;69556;45.004;7.532;2023-05-10T13:23:52;98004.06;;;21.40;50.13
80242;BME280;69556;45.004;7.532;2023-05-10T13:26:17;97998.00;;;21.48;51.73
80242;BME280;69556;45.004;7.532;2023-05-10T13:28:43;97992.88;;;21.75;50.47